Time;durP1;ratioP1;P1;durP2;ratioP2;P2;SDS_P1;SDS_P2;PMS_P1;PMS_P2;Temp;Humidity;BMP_temperature;BMP_pressure;BME280_temperature;BME280_humidity;BME280_pressure;Samples;Min_cycle;Max_cycle;Signal;HPM_P1;HPM_P2
2022/04/17 00:00:23;;;;;;;2.67;1.77;;;4.20;99.90;;;;;;5114300;28;20039;-75
2022/04/17 00:02:48;;;;;;;2.60;1.90;;;4.10;99.90;;;;;;5114094;28;20024;-74
2022/04/17 00:05:14;;;;;;;1.88;1.50;;;4.00;99.90;;;;;;5114895;28;20043;-74
2022/04/17 00:07:40;;;;;;;2.15;1.95;;;3.90;99.90;;;;;;5114581;28;20030;-74
2022/04/17 00:10:08;;;;;;;3.53;2.53;;;3.80;99.90;;;;;;5114838;28;20399;-74
2022/04/17 00:12:34;;;;;;;2.00;1.73;;;3.70;99.90;;;;;;5113701;28;20042;-74
2022/04/17 00:15:01;;;;;;;1.83;1.60;;;3.60;99.90;;;;;;5113895;28;20033;-74
2022/04/17 00:17:27;;;;;;;3.00;2.03;;;3.60;99.90;;;;;;5112509;28;20016;-74
2022/04/17 00:19:53;;;;;;;2.20;1.83;;;3.50;99.90;;;;;;5112842;28;20024;-74
2022/04/17 00:22:19;;;;;;;2.47;1.85;;;3.40;99.90;;;;;;5112443;28;20047;-74
2022/04/17 00:24:44;;;;;;;3.42;2.78;;;3.40;99.90;;;;;;5112625;28;20074;-74
2022/04/17 00:27:10;;;;;;;2.22;1.63;;;3.30;99.90;;;;;;5112635;28;20020;-74
2022/04/17 00:29:36;;;;;;;2.65;1.92;;;4.90;99.90;;;;;;5112547;28;20024;-74
2022/04/17 00:32:03;;;;;;;2.15;1.77;;;3.30;99.90;;;;;;5112311;28;20019;-74
2022/04/17 00:34:31;;;;;;;2.80;2.05;;;3.30;99.90;;;;;;5112873;28;20548;-73
2022/04/17 00:37:00;;;;;;;3.08;1.77;;;3.30;99.90;;;;;;5113086;28;20045;-74
2022/04/17 00:39:27;;;;;;;2.33;2.08;;;3.20;99.90;;;;;;5113586;28;20023;-74
2022/04/17 00:41:55;;;;;;;3.88;2.20;;;3.10;99.90;;;;;;5113681;28;20030;-74
2022/04/17 00:44:22;;;;;;;2.13;1.60;;;3.00;99.90;;;;;;5112897;28;20074;-74
2022/04/17 00:46:48;;;;;;;2.70;2.28;;;2.90;99.90;;;;;;5117340;28;20046;-74
2022/04/17 00:49:15;;;;;;;3.17;1.85;;;2.80;99.90;;;;;;5119714;28;20421;-77
2022/04/17 00:51:43;;;;;;;2.88;1.90;;;2.80;99.90;;;;;;5115419;28;20039;-74
2022/04/17 00:54:12;;;;;;;4.20;2.15;;;2.80;99.90;;;;;;5111258;28;20023;-74
2022/04/17 00:56:38;;;;;;;2.93;2.17;;;2.90;99.90;;;;;;5112273;28;20016;-74
2022/04/17 00:59:06;;;;;;;3.17;2.08;;;2.90;99.90;;;;;;5113257;28;20076;-74
2022/04/17 01:01:33;;;;;;;2.28;2.08;;;2.80;99.90;;;;;;5113399;28;20016;-74
2022/04/17 01:04:03;;;;;;;4.07;2.95;;;2.70;99.90;;;;;;5112933;28;20107;-74
2022/04/17 01:06:30;;;;;;;2.90;2.35;;;2.80;99.90;;;;;;5112610;28;20412;-74
2022/04/17 01:08:57;;;;;;;2.88;2.42;;;2.80;99.90;;;;;;5111844;28;20488;-74
2022/04/17 01:11:23;;;;;;;3.00;2.40;;;2.90;99.90;;;;;;5111155;28;20123;-74
2022/04/17 01:13:49;;;;;;;3.58;2.53;;;2.90;99.90;;;;;;5110945;28;20189;-74
2022/04/17 01:16:18;;;;;;;3.80;2.60;;;3.00;99.90;;;;;;5110834;28;20103;-74
2022/04/17 01:18:55;;;;;;;3.30;2.13;;;3.10;99.90;;;;;;5110008;28;20077;-74
2022/04/17 01:21:23;;;;;;;4.20;2.33;;;3.20;99.90;;;;;;5109393;28;20028;-73
2022/04/17 01:29:18;;;;;;;3.75;2.63;;;3.50;99.90;;;;;;5111593;28;20103;-74
2022/04/17 01:31:45;;;;;;;4.50;2.92;;;3.70;99.90;;;;;;5110887;28;20494;-74
2022/04/17 01:34:12;;;;;;;3.60;2.60;;;3.90;99.90;;;;;;5111348;28;20023;-74
2022/04/17 01:36:38;;;;;;;2.58;2.38;;;4.00;99.90;;;;;;5111416;28;20043;-74
2022/04/17 01:39:04;;;;;;;3.45;2.03;;;3.90;99.90;;;;;;5111623;28;20063;-74
2022/04/17 01:41:30;;;;;;;3.70;2.30;;;3.90;99.90;;;;;;5110339;28;20020;-74
2022/04/17 01:43:55;;;;;;;3.08;2.65;;;4.10;99.90;;;;;;5111263;28;20063;-74
2022/04/17 01:46:22;;;;;;;3.15;2.28;;;4.30;99.90;;;;;;5110668;28;20023;-74
2022/04/17 01:48:48;;;;;;;3.10;2.63;;;4.30;99.90;;;;;;5111246;28;20016;-74
2022/04/17 01:51:14;;;;;;;8.63;2.65;;;4.40;99.90;;;;;;5111758;28;20031;-74
2022/04/17 01:53:39;;;;;;;3.13;1.90;;;4.40;99.90;;;;;;5110917;28;20019;-74
2022/04/17 01:56:05;;;;;;;11.95;2.42;;;4.40;99.90;;;;;;5110785;28;20274;-74
2022/04/17 01:58:31;;;;;;;3.20;2.80;;;4.50;99.90;;;;;;5111273;28;20364;-74
2022/04/17 02:00:57;;;;;;;4.65;2.40;;;4.60;99.90;;;;;;5109806;28;20047;-74
2022/04/17 02:03:22;;;;;;;3.53;2.60;;;4.60;99.90;;;;;;5112128;28;20027;-74
2022/04/17 02:05:48;;;;;;;4.20;2.75;;;4.70;99.90;;;;;;5115142;27;20027;-74
2022/04/17 02:08:15;;;;;;;3.30;2.38;;;4.70;99.90;;;;;;5115399;28;20604;-74
2022/04/17 02:10:41;;;;;;;3.95;2.45;;;4.70;99.90;;;;;;5114817;28;20047;-74
2022/04/17 02:13:08;;;;;;;3.45;2.25;;;4.60;99.90;;;;;;5114933;28;20040;-74
2022/04/17 02:15:33;;;;;;;6.45;2.80;;;4.60;99.90;;;;;;5114399;28;20016;-74
2022/04/17 02:17:59;;;;;;;4.35;2.70;;;4.70;99.90;;;;;;5114819;28;20050;-73
2022/04/17 02:20:25;;;;;;;3.20;2.33;;;4.80;99.90;;;;;;5115124;28;20076;-74
2022/04/17 02:22:52;;;;;;;3.58;2.42;;;4.90;99.90;;;;;;5114594;28;20031;-75
2022/04/17 02:25:17;;;;;;;3.40;2.58;;;5.10;99.90;;;;;;5113154;28;20035;-74
2022/04/17 02:27:44;;;;;;;4.85;2.95;;;5.30;99.90;;;;;;5115122;28;20030;-73
2022/04/17 02:30:10;;;;;;;3.78;2.78;;;5.40;99.50;;;;;;5114903;28;20026;-74
2022/04/17 02:32:36;;;;;;;4.32;2.05;;;5.50;97.60;;;;;;5114086;28;20547;-73
2022/04/17 02:35:01;;;;;;;6.20;3.10;;;5.40;99.30;;;;;;5113559;28;20110;-74
2022/04/17 02:37:28;;;;;;;3.58;2.63;;;5.40;99.90;;;;;;5114412;28;20383;-74
2022/04/17 02:39:54;;;;;;;4.72;2.75;;;5.30;99.80;;;;;;5114206;28;20030;-74
2022/04/17 02:42:20;;;;;;;3.05;2.72;;;5.20;99.90;;;;;;5114607;28;20067;-74
2022/04/17 02:44:45;;;;;;;6.10;3.65;;;5.10;99.90;;;;;;5112582;28;20035;-74
2022/04/17 02:49:56;;;;;;;6.57;2.55;;;5.00;99.80;;;;;;5115073;28;20027;-73
2022/04/17 02:52:22;;;;;;;3.75;2.63;;;4.90;99.90;;;;;;5114260;28;20028;-74
2022/04/17 02:54:47;;;;;;;7.82;3.40;;;4.90;99.90;;;;;;5113732;28;20401;-74
2022/04/17 02:57:13;;;;;;;3.05;2.78;;;4.80;99.90;;;;;;5114174;28;20023;-74
2022/04/17 02:59:39;;;;;;;6.55;3.20;;;4.70;99.90;;;;;;5114732;28;20024;-75
2022/04/17 03:07:34;;;;;;;5.13;2.97;;;4.30;99.90;;;;;;5115116;28;20080;-74
2022/04/17 03:10:02;;;;;;;4.72;2.60;;;4.20;99.90;;;;;;5116123;28;20041;-74
2022/04/17 03:12:27;;;;;;;3.30;2.80;;;4.00;99.90;;;;;;5114719;28;20035;-74
2022/04/17 03:14:53;;;;;;;3.38;2.88;;;3.80;99.90;;;;;;5113804;28;20406;-74
2022/04/17 03:17:19;;;;;;;4.32;3.00;;;3.50;99.90;;;;;;5114498;28;20019;-74
2022/04/17 03:19:46;;;;;;;4.82;2.97;;;3.80;99.90;;;;;;5113912;28;20024;-74
2022/04/17 03:22:11;;;;;;;4.00;3.17;;;3.20;99.90;;;;;;5113930;28;20020;-75
2022/04/17 03:24:37;;;;;;;5.10;2.70;;;3.10;99.90;;;;;;5113524;28;20401;-74
2022/04/17 03:27:03;;;;;;;4.25;2.88;;;3.00;99.90;;;;;;5113158;28;20468;-74
2022/04/17 03:29:29;;;;;;;3.17;2.60;;;2.90;99.90;;;;;;5113199;27;20027;-74
2022/04/17 03:31:54;;;;;;;4.85;2.50;;;2.80;99.90;;;;;;5112805;28;20411;-74
2022/04/17 03:34:20;;;;;;;4.30;3.10;;;2.70;99.90;;;;;;5113345;28;20460;-74
2022/04/17 03:36:46;;;;;;;7.43;3.45;;;2.60;99.90;;;;;;5113120;28;20023;-74
2022/04/17 03:39:12;;;;;;;4.90;2.67;;;2.40;99.90;;;;;;5112979;28;20088;-74
2022/04/17 03:41:38;;;;;;;5.50;2.95;;;2.30;99.90;;;;;;5111494;28;20035;-74
2022/04/17 03:44:04;;;;;;;6.45;2.88;;;2.20;99.90;;;;;;5112500;28;20038;-74
2022/04/17 03:46:30;;;;;;;3.17;2.50;;;2.20;99.90;;;;;;5112657;28;20107;-74
2022/04/17 03:48:55;;;;;;;5.28;3.33;;;2.10;99.90;;;;;;5112531;28;20055;-74
2022/04/17 03:51:21;;;;;;;4.70;3.75;;;2.00;99.90;;;;;;5112034;28;20472;-74
2022/04/17 03:53:47;;;;;;;4.43;2.67;;;1.90;99.90;;;;;;5112820;28;20468;-74
2022/04/17 03:56:12;;;;;;;10.27;4.15;;;1.70;99.90;;;;;;5112147;28;20027;-74
2022/04/17 03:58:38;;;;;;;4.65;3.17;;;1.70;99.90;;;;;;5112585;28;20085;-74
2022/04/17 04:01:04;;;;;;;5.22;3.13;;;1.80;99.90;;;;;;5112917;28;20030;-74
2022/04/17 04:03:29;;;;;;;5.43;3.25;;;1.80;99.90;;;;;;5112631;28;20019;-74
2022/04/17 04:05:55;;;;;;;7.30;3.17;;;1.70;99.90;;;;;;5112376;28;20548;-74
2022/04/17 04:08:21;;;;;;;12.38;3.38;;;1.50;99.90;;;;;;5113116;28;20031;-74
2022/04/17 04:10:47;;;;;;;5.38;3.80;;;1.40;99.90;;;;;;5112891;28;20055;-74
2022/04/17 04:13:13;;;;;;;5.57;3.45;;;1.10;99.90;;;;;;5112791;28;20071;-74
2022/04/17 04:15:38;;;;;;;3.35;2.80;;;1.10;99.90;;;;;;5112486;28;20050;-74
2022/04/17 04:18:04;;;;;;;4.15;2.72;;;1.00;99.90;;;;;;5112223;28;20024;-74
2022/04/17 04:20:30;;;;;;;5.97;2.92;;;0.90;99.90;;;;;;5112953;28;20585;-74
2022/04/17 04:22:57;;;;;;;6.57;3.72;;;0.80;99.90;;;;;;5113165;28;20023;-74
2022/04/17 04:25:22;;;;;;;4.72;3.85;;;0.80;99.90;;;;;;5111856;28;20031;-74
2022/04/17 04:30:32;;;;;;;6.00;3.55;;;0.80;99.90;;;;;;5113151;28;20452;-74
2022/04/17 04:32:59;;;;;;;5.10;3.40;;;0.90;99.90;;;;;;5112172;28;20028;-74
2022/04/17 04:35:29;;;;;;;6.97;3.85;;;1.00;99.90;;;;;;5111846;28;20015;-74
2022/04/17 04:37:56;;;;;;;4.18;3.72;;;1.10;99.90;;;;;;5111935;28;20403;-74
2022/04/17 04:40:21;;;;;;;5.10;3.45;;;1.10;99.90;;;;;;5111803;28;20023;-74
2022/04/17 04:42:48;;;;;;;4.43;3.70;;;1.10;99.90;;;;;;5111686;28;20012;-74
2022/04/17 04:47:58;;;;;;;4.28;3.40;;;1.20;99.90;;;;;;5112712;28;20034;-74
2022/04/17 04:50:24;;;;;;;4.05;3.60;;;1.70;99.90;;;;;;5111884;28;20028;-73
2022/04/17 04:52:49;;;;;;;5.88;3.38;;;1.90;99.90;;;;;;5112158;28;20024;-74
2022/04/17 04:55:15;;;;;;;6.60;3.17;;;2.10;99.90;;;;;;5112322;28;20023;-74
2022/04/17 04:57:41;;;;;;;6.38;3.30;;;2.30;99.90;;;;;;5111818;28;20031;-74
2022/04/17 05:00:08;;;;;;;4.85;3.63;;;2.30;99.90;;;;;;5112288;28;20113;-74
2022/04/17 05:02:40;;;;;;;6.47;3.20;;;2.30;99.90;;;;;;5112197;28;20468;-74
2022/04/17 05:05:07;;;;;;;2.53;1.90;;;2.40;99.90;;;;;;5112433;28;20039;-74
2022/04/17 05:07:33;;;;;;;5.85;2.90;;;2.30;99.90;;;;;;5110680;28;20020;-74
2022/04/17 05:10:00;;;;;;;5.78;2.90;;;2.40;99.90;;;;;;5111285;28;20379;-74
2022/04/17 05:12:27;;;;;;;4.20;3.35;;;2.30;99.90;;;;;;5110794;28;20036;-74
2022/04/17 05:14:53;;;;;;;5.05;3.20;;;2.40;99.90;;;;;;5111378;28;20484;-73
2022/04/17 05:17:19;;;;;;;3.40;2.65;;;2.30;99.90;;;;;;5111592;28;20030;-74
2022/04/17 05:19:45;;;;;;;3.10;2.35;;;2.30;99.90;;;;;;5111657;28;20484;-74
2022/04/17 05:22:15;;;;;;;3.80;2.58;;;2.30;99.90;;;;;;5112131;28;20054;-74
2022/04/17 05:24:44;;;;;;;3.70;2.60;;;2.30;99.90;;;;;;5111389;28;20080;-74
2022/04/17 05:27:12;;;;;;;3.22;2.67;;;2.30;99.90;;;;;;5112219;28;20111;-74
2022/04/17 05:29:40;;;;;;;4.85;2.67;;;2.40;99.90;;;;;;5113555;28;20077;-74
2022/04/17 05:32:06;;;;;;;4.72;2.47;;;2.50;99.90;;;;;;5113991;28;20024;-74
2022/04/17 05:34:32;;;;;;;2.60;2.28;;;2.60;99.90;;;;;;5113978;28;20023;-74
2022/04/17 05:36:58;;;;;;;3.47;2.55;;;2.70;99.90;;;;;;5113278;28;20023;-73
2022/04/17 05:39:24;;;;;;;3.35;2.28;;;2.80;99.90;;;;;;5111754;28;20016;-74
2022/04/17 05:41:50;;;;;;;4.50;3.08;;;2.90;99.90;;;;;;5111795;28;20173;-73
2022/04/17 05:44:26;;;;;;;2.45;2.25;;;3.10;99.90;;;;;;5112345;28;20035;-74
2022/04/17 05:46:52;;;;;;;3.45;3.15;;;3.50;99.90;;;;;;5113353;28;20417;-74
2022/04/17 05:49:17;;;;;;;3.38;2.60;;;3.90;99.90;;;;;;5112176;28;20464;-74
2022/04/17 05:51:43;;;;;;;3.95;2.45;;;4.00;99.90;;;;;;5112455;28;20395;-74
2022/04/17 05:54:10;;;;;;;4.40;3.05;;;4.10;99.90;;;;;;5112440;28;20069;-74
2022/04/17 05:56:37;;;;;;;4.07;2.83;;;4.30;99.90;;;;;;5109562;28;20384;-74
2022/04/17 05:59:04;;;;;;;5.13;3.03;;;4.40;99.90;;;;;;5111002;28;20482;-74
2022/04/17 06:01:30;;;;;;;3.65;2.70;;;4.50;99.90;;;;;;5111447;28;20107;-74
2022/04/17 06:03:56;;;;;;;3.83;3.00;;;4.50;99.90;;;;;;5112287;28;20130;-74
2022/04/17 06:06:22;;;;;;;6.07;4.03;;;4.40;99.90;;;;;;5111529;28;20375;-74
2022/04/17 06:08:48;;;;;;;5.18;3.45;;;4.40;99.90;;;;;;5109847;28;20031;-74
2022/04/17 06:11:14;;;;;;;5.40;3.53;;;4.30;99.90;;;;;;5110858;28;20072;-75
2022/04/17 06:13:40;;;;;;;5.22;3.13;;;4.30;99.90;;;;;;5110201;28;20054;-74
2022/04/17 06:16:06;;;;;;;3.15;2.75;;;4.20;99.90;;;;;;5111213;28;20028;-74
2022/04/17 06:18:32;;;;;;;9.63;2.80;;;4.30;99.90;;;;;;5112342;28;20038;-74
2022/04/17 06:20:57;;;;;;;4.07;3.08;;;4.20;99.90;;;;;;5112390;28;20028;-74
2022/04/17 06:23:24;;;;;;;2.55;2.28;;;4.20;99.90;;;;;;5110577;28;20467;-74
2022/04/17 06:25:50;;;;;;;4.43;3.22;;;4.30;99.90;;;;;;5111321;28;20042;-74
2022/04/17 06:28:15;;;;;;;3.40;2.85;;;4.50;99.90;;;;;;5111214;28;20016;-74
2022/04/17 06:30:41;;;;;;;4.20;3.25;;;4.70;99.90;;;;;;5109212;28;20031;-74
2022/04/17 06:33:07;;;;;;;6.78;3.03;;;4.80;99.90;;;;;;5110465;28;20107;-74
2022/04/17 06:35:33;;;;;;;3.80;2.97;;;5.00;99.90;;;;;;5111477;28;20031;-74
2022/04/17 06:38:01;;;;;;;6.30;3.63;;;5.10;99.90;;;;;;5118080;28;20024;-75
2022/04/17 06:40:33;;;;;;;5.00;3.20;;;5.30;99.90;;;;;;5118390;28;20020;-75
2022/04/17 06:43:01;;;;;;;5.05;3.08;;;5.40;99.90;;;;;;5114322;28;20019;-74
2022/04/17 06:45:28;;;;;;;4.75;3.22;;;5.70;99.90;;;;;;5111857;28;20032;-74
2022/04/17 06:47:55;;;;;;;4.40;3.22;;;5.90;99.90;;;;;;5112986;28;20467;-73
2022/04/17 06:50:22;;;;;;;5.45;3.70;;;6.70;99.90;;;;;;5114802;28;20031;-74
2022/04/17 06:52:48;;;;;;;6.38;3.38;;;7.20;98.90;;;;;;5114451;28;20454;-74
2022/04/17 06:55:14;;;;;;;3.45;2.92;;;7.30;96.40;;;;;;5114459;28;20026;-74
2022/04/17 06:57:50;;;;;;;4.35;3.03;;;7.30;96.40;;;;;;5114728;28;20114;-74
2022/04/17 07:00:17;;;;;;;4.88;2.90;;;7.10;96.40;;;;;;5114818;28;20494;-74
2022/04/17 07:02:44;;;;;;;3.58;2.92;;;6.60;99.90;;;;;;5116240;28;20092;-74
2022/04/17 07:05:11;;;;;;;5.57;3.10;;;6.40;99.90;;;;;;5115602;28;20031;-74
2022/04/17 07:07:37;;;;;;;6.43;3.53;;;6.30;99.90;;;;;;5116650;28;20048;-74
2022/04/17 07:10:03;;;;;;;6.22;3.10;;;6.30;99.90;;;;;;5116046;28;20032;-74
2022/04/17 07:12:29;;;;;;;5.50;2.75;;;6.40;99.90;;;;;;5114701;28;20040;-74
2022/04/17 07:14:55;;;;;;;4.47;3.65;;;6.60;99.90;;;;;;5114285;28;20030;-74
2022/04/17 07:17:21;;;;;;;8.52;2.97;;;6.70;99.90;;;;;;5113652;28;20030;-74
2022/04/17 07:19:47;;;;;;;5.07;3.85;;;6.60;99.90;;;;;;5113594;28;20387;-74
2022/04/17 07:22:13;;;;;;;3.83;2.72;;;7.00;99.90;;;;;;5113068;28;20028;-74
2022/04/17 07:24:43;;;;;;;5.43;3.10;;;7.10;98.50;;;;;;5114375;28;20081;-74
2022/04/17 07:27:16;;;;;;;;;;;7.00;97.10;;;;;;5114506;28;20024;-74
2022/04/17 07:29:42;;;;;;;4.15;2.95;;;7.00;99.90;;;;;;5113646;28;19904;-74
2022/04/17 07:32:08;;;;;;;4.70;3.42;;;7.00;97.20;;;;;;5114341;28;20072;-74
2022/04/17 07:34:34;;;;;;;5.47;3.55;;;7.10;99.90;;;;;;5114059;28;20035;-74
2022/04/17 07:36:59;;;;;;;4.93;2.60;;;7.40;99.90;;;;;;5115151;28;20020;-74
2022/04/17 07:39:25;;;;;;;4.82;3.15;;;7.80;98.30;;;;;;5114061;28;20161;-74
2022/04/17 07:41:51;;;;;;;4.07;3.22;;;8.10;90.30;;;;;;5113580;28;20073;-74
2022/04/17 07:44:16;;;;;;;3.65;3.10;;;7.80;89.70;;;;;;5113961;28;20039;-74
2022/04/17 07:46:42;;;;;;;4.95;3.10;;;7.80;86.80;;;;;;5115225;28;20081;-74
2022/04/17 07:49:09;;;;;;;5.90;3.20;;;8.00;85.30;;;;;;5114974;28;20035;-74
2022/04/17 07:51:35;;;;;;;2.88;2.65;;;8.30;84.60;;;;;;5113844;28;20259;-74
2022/04/17 07:54:02;;;;;;;5.03;3.15;;;8.00;84.20;;;;;;5112786;28;20027;-74
2022/04/17 07:56:28;;;;;;;2.85;2.65;;;8.20;82.50;;;;;;5113439;28;20185;-74
2022/04/17 07:58:54;;;;;;;3.33;3.03;;;8.60;80.50;;;;;;5113210;28;20019;-74
2022/04/17 08:01:20;;;;;;;2.90;2.63;;;8.60;78.70;;;;;;5112653;28;20041;-74
2022/04/17 08:03:46;;;;;;;4.28;2.70;;;8.60;80.50;;;;;;5113301;28;20029;-74
2022/04/17 08:06:20;;;;;;;5.40;2.70;;;8.80;80.70;;;;;;5112791;28;20389;-74
2022/04/17 08:08:47;;;;;;;3.33;2.58;;;8.70;80.70;;;;;;5115953;28;20392;-74
2022/04/17 08:11:13;;;;;;;4.95;3.00;;;8.70;79.60;;;;;;5112936;28;20031;-74
2022/04/17 08:13:39;;;;;;;2.75;2.55;;;8.80;78.20;;;;;;5114511;28;20409;-74
2022/04/17 08:16:06;;;;;;;5.07;2.70;;;9.10;78.90;;;;;;5114014;28;20034;-74
2022/04/17 08:18:33;;;;;;;4.35;2.90;;;9.50;76.60;;;;;;5114368;28;20616;-74
2022/04/17 08:20:59;;;;;;;3.40;2.65;;;9.80;73.60;;;;;;5112508;28;20103;-74
2022/04/17 08:23:25;;;;;;;3.35;2.58;;;9.70;72.40;;;;;;5113033;28;20107;-74
2022/04/17 08:25:52;;;;;;;3.97;2.97;;;9.80;73.10;;;;;;5113481;28;20032;-74
2022/04/17 08:28:17;;;;;;;5.53;2.40;;;9.10;72.40;;;;;;5112693;28;20040;-74
2022/04/17 08:30:43;;;;;;;2.75;2.47;;;9.40;70.90;;;;;;5112342;28;20098;-74
2022/04/17 08:33:09;;;;;;;9.15;3.45;;;9.50;70.40;;;;;;5112112;28;20072;-74
2022/04/17 08:35:35;;;;;;;2.92;2.17;;;9.70;70.90;;;;;;5112536;28;20484;-74
2022/04/17 08:38:02;;;;;;;3.15;2.60;;;9.90;71.20;;;;;;5112674;28;20023;-74
2022/04/17 08:40:28;;;;;;;4.55;3.08;;;10.00;68.20;;;;;;5113896;28;20024;-74
2022/04/17 08:42:54;;;;;;;4.05;2.65;;;10.00;67.20;;;;;;5113516;28;20092;-74
2022/04/17 08:45:20;;;;;;;5.63;2.50;;;10.30;64.70;;;;;;5113656;28;20112;-75
2022/04/17 08:47:46;;;;;;;4.38;2.78;;;10.60;63.20;;;;;;5115075;28;20050;-74
2022/04/17 08:50:14;;;;;;;4.95;2.22;;;10.40;63.80;;;;;;5112697;28;20081;-74
2022/04/17 08:52:41;;;;;;;2.47;2.30;;;10.30;64.50;;;;;;5112089;28;20058;-74
2022/04/17 08:55:07;;;;;;;4.05;3.25;;;10.50;64.60;;;;;;5112355;28;20118;-74
2022/04/17 08:57:33;;;;;;;3.15;2.55;;;10.60;67.40;;;;;;5111230;28;20023;-74
2022/04/17 08:59:59;;;;;;;2.88;2.50;;;11.00;65.30;;;;;;5112888;28;20016;-74
2022/04/17 09:02:25;;;;;;;4.10;2.42;;;10.60;64.30;;;;;;5110982;28;20027;-74
2022/04/17 09:04:51;;;;;;;2.63;2.42;;;10.30;63.30;;;;;;5112483;28;20035;-74
2022/04/17 09:07:17;;;;;;;2.92;2.63;;;10.40;67.30;;;;;;5111565;28;20427;-74
2022/04/17 09:09:53;;;;;;;3.60;2.80;;;10.40;63.60;;;;;;5111309;28;20115;-74
2022/04/17 09:12:26;;;;;;;2.55;2.35;;;10.60;66.30;;;;;;5111068;28;20487;-75
2022/04/17 09:14:55;;;;;;;4.35;3.50;;;10.50;64.00;;;;;;5111103;28;20528;-74
2022/04/17 09:17:29;;;;;;;5.93;2.92;;;10.50;63.50;;;;;;5112067;28;20353;-74
2022/04/17 09:19:54;;;;;;;4.32;2.70;;;10.50;68.70;;;;;;5112174;28;20020;-74
2022/04/17 09:22:20;;;;;;;3.38;2.60;;;10.60;64.90;;;;;;5109902;28;20460;-74
2022/04/17 09:24:46;;;;;;;2.67;2.47;;;10.60;63.40;;;;;;5110986;28;20027;-74
2022/04/17 09:27:11;;;;;;;3.67;2.45;;;10.70;65.40;;;;;;5112265;28;20058;-75
2022/04/17 09:29:38;;;;;;;2.78;2.20;;;10.80;63.60;;;;;;5110596;28;20467;-74
2022/04/17 09:32:12;;;;;;;2.72;2.53;;;10.60;63.70;;;;;;5110421;28;20420;-74
2022/04/17 09:34:49;;;;;;;3.35;3.05;;;10.60;61.10;;;;;;5111969;28;20028;-74
2022/04/17 09:37:22;;;;;;;3.00;2.30;;;10.50;61.70;;;;;;5111602;28;20110;-74
2022/04/17 09:39:50;;;;;;;3.50;2.33;;;10.50;63.60;;;;;;5111679;28;20012;-74
2022/04/17 09:42:21;;;;;;;3.00;2.38;;;10.40;62.10;;;;;;5110238;28;20030;-74
2022/04/17 09:44:49;;;;;;;3.10;2.70;;;10.40;62.60;;;;;;5110662;28;20028;-74
2022/04/17 09:47:26;;;;;;;5.47;2.10;;;10.70;63.30;;;;;;5109901;28;20542;-74
2022/04/17 09:49:51;;;;;;;2.40;2.20;;;10.80;61.10;;;;;;5111110;28;20027;-74
2022/04/17 09:52:18;;;;;;;2.38;2.17;;;10.60;62.30;;;;;;5115157;28;20019;-75
2022/04/17 09:54:44;;;;;;;3.40;2.20;;;10.90;63.60;;;;;;5119274;28;20213;-75
2022/04/17 09:57:12;;;;;;;3.05;2.50;;;11.20;62.20;;;;;;5116420;28;20073;-74
2022/04/17 09:59:37;;;;;;;3.90;2.30;;;11.50;60.80;;;;;;5111051;28;20027;-74
2022/04/17 10:02:05;;;;;;;4.00;2.28;;;11.70;59.60;;;;;;5110871;28;20019;-74
2022/04/17 10:04:31;;;;;;;2.55;1.92;;;11.70;59.20;;;;;;5109547;28;20036;-74
2022/04/17 10:06:59;;;;;;;2.17;2.08;;;11.60;57.40;;;;;;5109106;28;20028;-74
2022/04/17 10:09:25;;;;;;;2.65;1.90;;;11.60;57.00;;;;;;5110549;28;20099;-74
2022/04/17 10:11:51;;;;;;;4.85;2.30;;;11.70;57.70;;;;;;5110357;28;20499;-74
2022/04/17 10:14:18;;;;;;;3.42;2.15;;;11.50;56.90;;;;;;5110126;28;20254;-74
2022/04/17 10:16:48;;;;;;;3.22;2.28;;;11.70;59.50;;;;;;5110789;28;20379;-74
2022/04/17 10:19:24;;;;;;;5.72;3.92;;;11.80;59.40;;;;;;5110381;28;20031;-74
2022/04/17 10:21:51;;;;;;;2.42;2.22;;;11.70;59.30;;;;;;5110591;28;20027;-74
2022/04/17 10:24:19;;;;;;;3.65;2.83;;;11.90;60.00;;;;;;5112478;28;20113;-74
2022/04/17 10:26:47;;;;;;;3.50;2.35;;;12.30;60.60;;;;;;5112755;28;20446;-75
2022/04/17 10:29:21;;;;;;;9.85;2.97;;;12.30;58.80;;;;;;5114780;28;20028;-74
2022/04/17 10:32:18;;;;;;;3.25;2.03;;;12.40;56.60;;;;;;5114649;28;20026;-74
2022/04/17 10:35:28;;;;;;;2.78;1.85;;;12.40;56.30;;;;;;5114769;28;20023;-74
2022/04/17 10:38:26;;;;;;;2.78;2.10;;;12.40;56.90;;;;;;5030819;28;20064;-74
2022/04/17 10:41:09;;;;;;;2.13;1.92;;;12.30;57.50;;;;;;5114525;28;20502;-74
2022/04/17 10:43:46;;;;;;;2.88;2.22;;;12.70;57.80;;;;;;5115032;28;20028;-74
2022/04/17 10:46:13;;;;;;;2.70;2.20;;;13.40;53.70;;;;;;5114361;28;20388;-75
2022/04/17 10:48:58;;;;;;;2.53;1.80;;;13.50;52.90;;;;;;5114307;28;20055;-75
2022/04/17 10:51:32;;;;;;;2.42;1.60;;;13.60;53.40;;;;;;5114109;28;20050;-74
2022/04/17 10:54:06;;;;;;;1.73;1.55;;;13.60;52.10;;;;;;5113225;28;20528;-74
2022/04/17 10:56:41;;;;;;;1.67;1.52;;;13.30;54.40;;;;;;5114651;28;20349;-74
2022/04/17 10:59:16;;;;;;;1.80;1.70;;;13.60;53.00;;;;;;5114678;28;20023;-74
2022/04/17 11:01:44;;;;;;;2.08;1.98;;;13.60;50.60;;;;;;5113813;28;20034;-74
2022/04/17 11:04:25;;;;;;;3.85;2.15;;;13.90;50.70;;;;;;5114220;28;20019;-75
2022/04/17 11:07:12;;;;;;;5.35;1.77;;;14.10;50.60;;;;;;5114234;28;20472;-74
2022/04/17 11:09:42;;;;;;;4.82;1.80;;;14.40;49.40;;;;;;5099455;28;20032;-74
2022/04/17 11:12:07;;;;;;;;;;;14.60;51.90;;;;;;5113974;28;20042;-74
2022/04/17 11:14:33;;;;;;;1.58;1.40;;;14.50;50.30;;;;;;5114308;28;19903;-74
2022/04/17 11:17:03;;;;;;;1.48;1.38;;;14.90;50.20;;;;;;5114524;28;20202;-74
2022/04/17 11:19:31;;;;;;;1.55;1.42;;;15.30;48.80;;;;;;5113578;28;20055;-74
2022/04/17 11:22:05;;;;;;;1.88;1.33;;;16.00;50.30;;;;;;5113810;28;20102;-74
2022/04/17 11:24:56;;;;;;;1.38;1.27;;;15.70;47.20;;;;;;5113969;27;20032;-74
2022/04/17 11:27:41;;;;;;;1.52;1.35;;;15.90;47.50;;;;;;5114235;28;20016;-74
2022/04/17 11:30:14;;;;;;;1.70;1.60;;;16.00;46.20;;;;;;5113174;28;20020;-83
2022/04/17 11:32:39;;;;;;;1.60;1.50;;;16.50;46.00;;;;;;5112451;28;20028;-74
2022/04/17 11:35:07;;;;;;;3.53;1.42;;;16.60;46.40;;;;;;5113513;28;20391;-74
2022/04/17 11:37:33;;;;;;;1.42;1.30;;;15.60;47.00;;;;;;5113893;28;20015;-74
2022/04/17 11:40:12;;;;;;;2.10;1.50;;;15.80;48.10;;;;;;5114489;28;20392;-74
2022/04/17 11:42:42;;;;;;;1.60;1.50;;;15.80;47.00;;;;;;5113948;28;20365;-74
2022/04/17 11:45:09;;;;;;;2.90;1.80;;;16.30;47.00;;;;;;5112311;28;20054;-81
2022/04/17 11:47:43;;;;;;;6.50;1.77;;;16.80;45.70;;;;;;5110581;28;20020;-75
2022/04/17 11:50:10;;;;;;;1.60;1.50;;;17.20;45.50;;;;;;5112065;28;20027;-75
2022/04/17 11:52:37;;;;;;;1.75;1.42;;;17.70;45.10;;;;;;5111895;28;20015;-74
2022/04/17 11:55:04;;;;;;;1.88;1.77;;;17.40;47.70;;;;;;5111807;28;20032;-74
2022/04/17 11:57:30;;;;;;;2.10;1.88;;;18.00;45.00;;;;;;5113277;28;20047;-74
2022/04/17 11:59:57;;;;;;;2.22;1.52;;;18.10;43.60;;;;;;5112499;28;20059;-74
2022/04/17 12:02:28;;;;;;;1.60;1.50;;;18.50;44.80;;;;;;5111680;28;20020;-75
2022/04/17 12:05:09;;;;;;;2.58;1.35;;;18.50;44.90;;;;;;5111689;28;20028;-75
2022/04/17 12:07:35;;;;;;;1.90;1.50;;;18.60;44.80;;;;;;5112406;28;20068;-74
2022/04/17 12:10:08;;;;;;;1.30;1.20;;;18.10;42.80;;;;;;5111771;28;20032;-74
2022/04/17 12:12:45;;;;;;;1.52;1.00;;;18.60;42.70;;;;;;5112478;28;20097;-75
2022/04/17 12:15:13;;;;;;;1.90;1.00;;;19.60;42.70;;;;;;5110173;28;20224;-74
2022/04/17 12:17:39;;;;;;;1.02;0.93;;;19.20;42.90;;;;;;5113146;28;20019;-74
2022/04/17 12:20:13;;;;;;;1.05;0.90;;;18.20;44.30;;;;;;5113472;28;20019;-74
2022/04/17 12:22:40;;;;;;;2.20;0.93;;;18.50;44.70;;;;;;5112030;28;20559;-74
2022/04/17 12:25:16;;;;;;;1.58;1.13;;;18.70;45.00;;;;;;5111679;28;20400;-78
2022/04/17 12:27:42;;;;;;;1.10;1.10;;;19.20;47.00;;;;;;5110281;28;20155;-75
2022/04/17 12:30:09;;;;;;;1.10;1.10;;;20.00;41.10;;;;;;5110926;28;20028;-75
2022/04/17 12:32:44;;;;;;;1.95;1.27;;;19.80;41.10;;;;;;5110664;28;20118;-74
2022/04/17 12:35:13;;;;;;;1.42;1.20;;;19.80;41.10;;;;;;5111324;28;20045;-74
2022/04/17 12:37:40;;;;;;;1.05;1.05;;;19.00;40.10;;;;;;5112034;28;20498;-74
2022/04/17 12:40:14;;;;;;;4.57;1.00;;;20.00;42.10;;;;;;5110646;28;20028;-75
2022/04/17 12:42:40;;;;;;;1.13;0.98;;;20.40;40.30;;;;;;5111619;28;20024;-74
2022/04/17 12:45:08;;;;;;;2.30;1.08;;;20.00;39.70;;;;;;5112603;28;20027;-74
2022/04/17 12:47:36;;;;;;;1.33;0.80;;;20.10;41.70;;;;;;5112102;28;20020;-75
2022/04/17 12:50:07;;;;;;;1.92;1.30;;;20.30;41.40;;;;;;5112643;28;20360;-74
2022/04/17 12:52:33;;;;;;;1.00;0.90;;;20.10;41.80;;;;;;5112363;28;20023;-74
2022/04/17 12:55:09;;;;;;;0.90;0.90;;;21.10;40.30;;;;;;5113282;28;20019;-75
2022/04/17 12:57:35;;;;;;;0.90;0.80;;;19.90;41.10;;;;;;5111757;28;20015;-74
2022/04/17 13:00:16;;;;;;;1.00;0.90;;;19.90;41.20;;;;;;5111641;28;20452;-74
2022/04/17 13:02:42;;;;;;;2.67;1.63;;;19.50;42.60;;;;;;5111196;28;20024;-74
2022/04/17 13:05:09;;;;;;;2.58;0.88;;;20.10;41.30;;;;;;5111349;28;20380;-74
2022/04/17 13:07:36;;;;;;;2.38;0.75;;;20.20;41.80;;;;;;5112940;28;20383;-74
2022/04/17 13:10:06;;;;;;;3.38;1.58;;;20.70;40.80;;;;;;5110901;28;20015;-74
2022/04/17 13:12:32;;;;;;;3.30;0.88;;;20.10;40.30;;;;;;5110616;28;20100;-74
2022/04/17 13:14:59;;;;;;;2.13;0.82;;;20.30;41.00;;;;;;5112166;28;20103;-74